Latest Weather Observations for Lajamanu

IDD60801

Issued at 1:31 pm CST Monday 27 April 2015 (issued every 30 minutes, with the page automatically refreshed every 10 minutes)

About weather observations | Map of weather stations | Latest weather observations for NT | Other Formats
Station Details ID: 014829 Name: LAJAMANU AIRPORT Lat: -18.33 Lon: 130.64 Height: 315.6 m
Data from the previous 72 hours. | See also: Recent months at Lajamanu
Date/Time
CST
Temp
°C
App
Temp
°C
Dew
Point
Rel
Hum
%
Delta-T
°C
Wind Press
QNH
hPa
Press
MSL
hPa
Rain
since 9 am
mm
Dir
 
Spd
km/h
Gust
km/h
Spd
kts
Gust
kts
27/01:30pm 26.9 20.9 1.3 19 12.4 ESE 22 33 12 18 1017.5 1015.7 0.0
27/01:00pm 26.8 21.2 1.3 19 12.3 E 20 33 11 18 1017.9 1016.1 0.0
27/12:30pm 26.2 20.3 1.5 20 11.9 ESE 22 32 12 17 1018.4 1016.6 0.0
27/12:00pm 25.8 19.5 1.8 21 11.6 ESE 24 37 13 20 1018.7 1016.9 0.0
27/11:30am 25.1 18.2 2.5 23 11.0 ESE 28 41 15 22 1019.1 1017.3 0.0
27/11:00am 24.3 17.4 2.5 24 10.6 ESE 28 43 15 23 1019.7 1017.8 0.0
27/10:30am 23.5 16.7 2.9 26 10.0 E 28 41 15 22 1020.0 1018.2 0.0
27/10:00am 22.4 14.8 3.0 28 9.4 ESE 32 43 17 23 1019.9 1018.0 0.0
27/09:30am 21.5 13.7 2.7 29 9.0 ESE 33 44 18 24 1019.9 1018.0 0.0
27/09:00am 20.4 13.5 2.7 31 8.4 E 28 43 15 23 1019.9 1018.0 0.0
27/08:30am 17.9 12.1 2.2 35 7.2 E 22 33 12 18 1020.0 1018.2 0.0
27/08:00am 16.1 11.6 2.2 39 6.3 ESE 15 22 8 12 1019.9 1018.0 0.0
27/07:30am 13.4 9.2 1.7 45 5.1 ESE 13 19 7 10 1019.6 1017.7 0.0
27/07:00am 12.6 8.7 1.3 46 4.9 ESE 11 15 6 8 1019.2 1017.4 0.0
27/06:30am 12.1 8.5 0.8 46 4.8 ESE 9 13 5 7 1018.7 1016.9 0.0
27/06:00am 12.6 8.6 0.7 44 5.1 ESE 11 15 6 8 1018.5 1016.7 0.0
27/05:30am 12.3 8.7 0.4 44 5.0 ESE 9 13 5 7 1018.2 1016.4 0.0
27/05:00am 13.2 9.6 0.3 41 5.5 ESE 9 13 5 7 1018.1 1016.3 0.0
27/04:30am 13.6 9.5 -0.1 39 5.8 ESE 11 13 6 7 1018.1 1016.3 0.0
27/04:00am 14.5 10.4 -0.4 36 6.3 ESE 11 15 6 8 1018.0 1016.2 0.0
27/03:30am 15.4 10.8 -0.8 33 6.9 ESE 13 17 7 9 1018.0 1016.2 0.0
27/03:00am 16.2 10.9 -0.5 32 7.2 ESE 17 20 9 11 1017.9 1016.1 0.0
27/02:30am 16.4 11.1 -0.8 31 7.3 ESE 17 22 9 12 1018.0 1016.2 0.0
27/02:00am 15.6 11.0 -1.0 32 7.0 ESE 13 17 7 9 1018.1 1016.3 0.0
27/01:30am 16.4 11.8 -0.8 31 7.3 SE 13 17 7 9 1018.4 1016.6 0.0
27/01:00am 17.2 12.3 -0.5 30 7.7 SE 15 19 8 10 1018.6 1016.8 0.0
27/12:30am 17.4 12.8 -0.8 29 7.8 SE 13 17 7 9 1018.8 1017.0 0.0
27/12:00am 17.7 13.2 -0.5 29 7.9 SE 13 17 7 9 1018.7 1016.9 0.0
 
Date/Time
CST
Temp
°C
App
Temp
°C
Dew
Point
Rel
Hum
%
Delta-T
°C
Wind Press
QNH
hPa
Press
MSL
hPa
Rain
since 9 am
mm
Dir
 
Spd
km/h
Gust
km/h
Spd
kts
Gust
kts
26/11:30pm 17.0 13.0 0.2 32 7.4 SE 11 15 6 8 1018.8 1017.0 0.0
26/11:00pm 16.1 12.7 -0.6 32 7.1 SE 7 9 4 5 1019.0 1017.2 0.0
26/10:30pm 16.8 13.0 -0.9 30 7.6 SE 9 11 5 6 1019.1 1017.3 0.0
26/10:00pm 17.8 14.0 -0.9 28 8.1 SE 9 11 5 6 1019.1 1017.3 0.0
26/09:30pm 19.6 15.3 -1.5 24 9.1 SE 11 15 6 8 1018.9 1017.1 0.0
26/09:00pm 20.0 15.3 -1.7 23 9.4 SE 13 15 7 8 1018.7 1016.9 0.0
26/08:30pm 19.6 15.3 -1.5 24 9.1 SE 11 13 6 7 1018.3 1016.5 0.0
26/08:00pm 20.2 16.4 -1.0 24 9.4 SE 9 13 5 7 1018.0 1016.2 0.0
26/07:30pm 21.1 17.2 -1.4 22 9.9 SE 9 11 5 6 1017.6 1015.8 0.0
26/07:00pm 21.9 17.9 -2.0 20 10.5 SE 9 11 5 6 1017.2 1015.4 0.0
26/06:30pm 24.3 19.4 -3.1 16 12.0 SE 13 17 7 9 1017.0 1015.1 0.0
26/06:00pm 26.0 20.3 -3.5 14 13.0 ESE 17 22 9 12 1016.6 1014.7 0.0
26/05:30pm 26.9 20.8 -3.8 13 13.6 SE 19 26 10 14 1016.3 1014.4 0.0
26/05:00pm 27.8 22.2 -3.1 13 14.0 SE 17 24 9 13 1016.3 1014.4 0.0
26/04:30pm 27.7 21.5 -3.2 13 13.9 SE 20 26 11 14 1015.9 1014.1 0.0
26/04:00pm 28.1 22.5 -2.9 13 14.1 ESE 17 26 9 14 1016.0 1014.2 0.0
26/03:30pm 28.1 22.1 -2.9 13 14.1 SE 19 26 10 14 1016.2 1014.3 0.0
26/03:00pm 27.8 21.6 -3.1 13 13.9 SE 20 32 11 17 1016.4 1014.5 0.0
26/02:30pm 28.0 21.9 -2.0 14 13.8 SE 20 35 11 19 1016.8 1014.9 0.0
26/02:00pm 27.2 21.1 -2.6 14 13.5 ESE 20 35 11 19 1017.2 1015.4 0.0
26/01:30pm 26.8 19.9 -2.9 14 13.3 ESE 24 35 13 19 1017.6 1015.8 0.0
26/01:00pm 26.9 20.5 -1.9 15 13.2 SE 22 33 12 18 1018.0 1016.2 0.0
26/12:30pm 25.8 19.3 0.5 19 12.0 ESE 24 32 13 17 1018.5 1016.7 0.0
26/12:00pm 24.8 17.2 0.3 20 11.5 ESE 30 41 16 22 1019.0 1017.2 0.0
26/11:30am 24.6 18.3 1.5 22 11.0 ESE 24 35 13 19 1019.7 1017.8 0.0
26/11:00am 23.8 17.1 1.4 23 10.7 ESE 26 39 14 21 1020.1 1018.3 0.0
26/10:30am 22.9 15.1 1.8 25 10.0 ESE 32 41 17 22 1020.2 1018.4 0.0
26/10:00am 22.4 15.4 2.0 26 9.7 ESE 28 44 15 24 1020.0 1018.2 0.0
26/09:30am 20.9 12.9 1.7 28 9.0 ESE 33 44 18 24 1019.8 1017.9 0.0
26/09:00am 19.3 12.4 2.6 33 7.8 ESE 28 39 15 21 1019.7 1017.8 0.0
26/08:30am 17.7 12.5 3.6 39 6.7 ESE 20 30 11 16 1019.7 1017.8 0.0
26/08:00am 15.5 11.3 3.9 46 5.4 ESE 15 20 8 11 1019.5 1017.6 0.0
26/07:30am 13.2 9.9 4.4 55 4.1 ESE 11 15 6 8 1018.9 1017.1 0.0
26/07:00am 11.3 8.2 3.6 59 3.5 SE 9 11 5 6 1018.6 1016.8 0.0
26/06:30am 12.3 9.2 3.5 55 4.0 ESE 9 11 5 6 1018.3 1016.5 0.0
26/06:00am 13.1 10.1 4.0 54 4.2 SE 9 11 5 6 1018.1 1016.3 0.0
26/05:30am 13.0 10.0 4.2 55 4.1 SSE 9 11 5 6 1017.9 1016.1 0.0
26/05:00am 13.3 10.8 3.7 52 4.4 S 6 7 3 4 1017.8 1016.0 0.0
26/04:30am 14.3 11.2 3.7 49 4.9 SE 9 11 5 6 1017.7 1015.9 0.0
26/04:00am 14.7 11.3 3.8 48 5.1 ESE 11 13 6 7 1017.6 1015.8 0.0
26/03:30am 15.2 11.8 4.0 47 5.2 ESE 11 11 6 6 1017.4 1015.6 0.0
26/03:00am 15.3 11.9 4.1 47 5.3 ESE 11 13 6 7 1017.4 1015.6 0.0
26/02:30am 15.5 12.0 3.6 45 5.5 ESE 11 11 6 6 1017.4 1015.6 0.0
26/02:00am 16.2 12.8 3.9 44 5.8 E 11 13 6 7 1017.4 1015.6 0.0
26/01:30am 16.7 13.2 3.7 42 6.1 E 11 13 6 7 1017.7 1015.9 0.0
26/01:00am 17.2 13.7 3.5 40 6.5 ESE 11 13 6 7 1017.7 1015.9 0.0
26/12:30am 18.1 14.9 3.2 37 7.0 SE 9 11 5 6 1017.8 1016.0 0.0
26/12:00am 19.4 15.8 2.7 33 7.9 ESE 11 15 6 8 1018.0 1016.2 0.0
 
Date/Time
CST
Temp
°C
App
Temp
°C
Dew
Point
Rel
Hum
%
Delta-T
°C
Wind Press
QNH
hPa
Press
MSL
hPa
Rain
since 9 am
mm
Dir
 
Spd
km/h
Gust
km/h
Spd
kts
Gust
kts
25/11:30pm 20.7 16.7 3.0 31 8.5 ESE 13 20 7 11 1017.9 1016.1 0.0
25/11:00pm 21.4 17.4 2.6 29 9.0 ESE 13 17 7 9 1017.8 1016.0 0.0
25/10:30pm 21.9 17.5 2.6 28 9.2 SE 15 20 8 11 1017.8 1016.0 0.0
25/10:00pm 21.6 18.0 2.8 29 9.0 SE 11 13 6 7 1017.6 1015.8 0.0
25/09:30pm 22.4 18.3 2.5 27 9.5 SE 13 15 7 8 1017.4 1015.6 0.0
25/09:00pm 23.1 19.0 2.0 25 10.1 SE 13 17 7 9 1016.9 1015.0 0.0
25/08:30pm 23.9 19.8 2.1 24 10.5 SE 13 17 7 9 1016.5 1014.6 0.0
25/08:00pm 24.5 20.4 2.0 23 10.9 SE 13 19 7 10 1015.9 1014.1 0.0
25/07:30pm 25.4 20.8 1.5 21 11.5 SE 15 20 8 11 1015.4 1013.6 0.0
25/07:00pm 26.4 21.7 0.9 19 12.2 SE 15 19 8 10 1015.1 1013.3 0.0
25/06:30pm 27.6 21.9 -0.5 16 13.3 SE 19 26 10 14 1014.7 1012.9 0.0
25/06:00pm 28.7 22.8 -0.5 15 13.9 SE 20 28 11 15 1014.3 1012.5 0.0
25/05:30pm 29.9 23.5 -1.5 13 14.8 ESE 22 32 12 17 1013.9 1012.0 0.0
25/05:00pm 30.6 23.5 -0.9 13 15.1 ESE 26 35 14 19 1013.7 1011.8 0.0
25/04:30pm 31.1 25.2 -0.5 13 15.3 SE 20 32 11 17 1013.5 1011.6 0.0
25/04:00pm 31.6 25.8 -0.1 13 15.5 ESE 20 37 11 20 1013.3 1011.4 0.0
25/03:30pm 31.9 25.8 0.1 13 15.6 SE 22 32 12 17 1013.3 1011.4 0.0
25/03:00pm 31.8 26.0 0.0 13 15.6 SE 20 30 11 16 1013.3 1011.4 0.0
25/02:30pm 31.5 24.9 -0.2 13 15.5 ESE 24 37 13 20 1013.5 1011.6 0.0
25/02:00pm 31.4 25.9 0.7 14 15.2 ESE 19 28 10 15 1013.9 1012.0 0.0
25/01:30pm 31.4 25.9 0.7 14 15.2 ESE 19 30 10 16 1014.2 1012.3 0.0
25/01:00pm 30.8 24.8 1.2 15 14.7 ESE 22 32 12 17 1014.6 1012.8 0.0
25/12:30pm 30.6 24.6 1.0 15 14.6 E 22 33 12 18 1015.0 1013.2 0.0
25/12:00pm 30.0 23.5 0.6 15 14.4 ESE 24 33 13 18 1015.4 1013.6 0.0
25/11:30am 29.2 23.9 1.7 17 13.6 E 19 32 10 17 1015.7 1013.9 0.0
25/11:00am 28.1 21.4 1.6 18 13.0 E 26 39 14 21 1016.3 1014.4 0.0
25/10:30am 27.4 22.0 2.5 20 12.4 E 20 30 11 16 1016.7 1014.8 0.0
25/10:00am 26.0 20.3 2.7 22 11.5 ESE 22 35 12 19 1016.6 1014.7 0.0
25/09:30am 24.7 18.3 3.4 25 10.6 ESE 26 35 14 19 1016.5 1014.6 0.0
25/09:00am 23.7 18.6 4.1 28 9.8 E 20 26 11 14 1016.3 1014.4 0.0
25/08:30am 21.6 17.3 5.1 34 8.3 SE 17 26 9 14 1016.0 1014.2 0.0
25/08:00am 18.9 16.7 7.7 48 5.8 SE 9 13 5 7 1015.7 1013.9 0.0
25/07:30am 17.2 15.1 8.1 55 4.7 SSE 9 15 5 8 1015.4 1013.6 0.0
25/07:00am 16.4 14.7 7.6 56 4.5 S 6 7 3 4 1014.8 1013.0 0.0
25/06:30am 16.8 14.9 7.4 54 4.8 SSE 7 9 4 5 1014.5 1012.7 0.0
25/06:00am 16.8 14.9 7.7 55 4.7 SSE 7 9 4 5 1014.2 1012.3 0.0
25/05:30am 16.8 15.1 7.7 55 4.7 SE 6 7 3 4 1014.1 1012.2 0.0
25/05:00am 16.8 14.9 7.7 55 4.7 SE 7 9 4 5 1014.1 1012.2 0.0
25/04:30am 16.4 14.8 7.9 57 4.4 ESE 6 7 3 4 1014.1 1012.2 0.0
25/04:00am 17.8 16.0 7.2 50 5.4 ESE 6 7 3 4 1014.1 1012.2 0.0
25/03:30am 17.3 16.7 7.6 53 5.0 CALM 0 0 0 0 1014.1 1012.2 0.0
25/03:00am 17.9 16.3 8.2 53 5.0 SSE 6 7 3 4 1014.2 1012.3 0.0
25/02:30am 18.9 17.4 8.3 50 5.6 SSE 6 7 3 4 1014.1 1012.2 0.0
25/02:00am 20.6 18.7 7.6 43 6.8 SE 7 11 4 6 1014.3 1012.5 0.0
25/01:30am 19.8 17.8 7.2 44 6.5 SE 7 7 4 4 1014.4 1012.6 0.0
25/01:00am 20.1 18.3 7.1 43 6.7 SE 6 7 3 4 1014.5 1012.7 0.0
25/12:30am 21.3 19.0 7.5 41 7.2 SE 9 11 5 6 1014.6 1012.8 0.0
25/12:00am 22.3 20.6 7.7 39 7.7 SSE 6 7 3 4 1014.8 1013.0 0.0
 
Date/Time
CST
Temp
°C
App
Temp
°C
Dew
Point
Rel
Hum
%
Delta-T
°C
Wind Press
QNH
hPa
Press
MSL
hPa
Rain
since 9 am
mm
Dir
 
Spd
km/h
Gust
km/h
Spd
kts
Gust
kts
24/11:30pm 22.0 21.3 7.0 38 7.8 CALM 0 6 0 3 1015.0 1013.2 0.0
24/11:00pm 23.7 21.7 6.9 34 8.8 SSE 7 9 4 5 1015.0 1013.2 0.0
24/10:30pm 23.9 21.8 6.7 33 9.0 SSE 7 9 4 5 1015.1 1013.3 0.0
24/10:00pm 23.7 21.2 6.5 33 9.0 SSE 9 11 5 6 1014.9 1013.1 0.0
24/09:30pm 24.2 22.1 6.5 32 9.3 SSE 7 11 4 6 1014.9 1013.1 0.0
24/09:00pm 24.8 22.7 6.5 31 9.6 S 7 11 4 6 1014.8 1013.0 0.0
24/08:30pm 24.9 22.3 6.1 30 9.8 SSE 9 11 5 6 1014.3 1012.5 0.0
24/08:00pm 24.8 22.1 5.6 29 9.9 SSE 9 13 5 7 1013.9 1012.0 0.0
24/07:30pm 25.7 22.9 5.3 27 10.6 SSE 9 11 5 6 1013.5 1011.6 0.0
24/07:00pm 26.5 23.6 4.9 25 11.1 SSE 9 11 5 6 1013.0 1011.1 0.0
24/06:30pm 27.6 23.9 4.6 23 11.9 SSE 13 15 7 8 1012.6 1010.8 0.0
24/06:00pm 29.2 25.8 3.9 20 13.1 SSE 11 13 6 7 1012.3 1010.5 0.0
24/05:30pm 30.6 25.7 1.9 16 14.4 SSE 17 20 9 11 1012.0 1010.2 0.0
24/05:00pm 31.1 26.2 2.3 16 14.6 S 17 22 9 12 1011.8 1010.0 0.0
24/04:30pm 31.7 26.8 1.9 15 15.1 SSE 17 24 9 13 1011.8 1010.0 0.0
24/04:00pm 32.0 26.6 1.2 14 15.4 SSE 19 32 10 17 1011.7 1009.9 0.0
24/03:30pm 32.5 28.1 2.5 15 15.4 SSE 15 22 8 12 1011.8 1010.0 0.0
24/03:00pm 32.2 28.1 2.3 15 15.3 SE 13 24 7 13 1011.8 1010.0 0.0
24/02:30pm 31.7 26.2 1.9 15 15.1 SE 20 30 11 16 1011.9 1010.1 0.0
24/02:00pm 31.8 26.5 2.0 15 15.1 SE 19 26 10 14 1012.2 1010.4 0.0

Other Formats:

Comma delimited format used in spreadsheet applications
http://www.bom.gov.au/fwo/IDD60801/IDD60801.94231.axf

JavaScript Object Notation format (JSON) in row-major order
http://www.bom.gov.au/fwo/IDD60801/IDD60801.94231.json